createdAt,value
2023-01-03T00:04:31.831Z,10.30
2023-01-03T00:12:38.250Z,10.40
2023-01-03T00:20:46.285Z,10.40
2023-01-03T00:28:51.622Z,10.60
2023-01-03T00:36:59.545Z,10.50
2023-01-03T00:45:04.856Z,10.50
2023-01-03T00:53:12.866Z,10.30
2023-01-03T01:01:19.982Z,10.30
2023-01-03T01:09:30.800Z,10.30
2023-01-03T01:17:36.253Z,9.90
2023-01-03T01:25:44.333Z,9.80
2023-01-03T01:33:50.123Z,9.50
2023-01-03T01:42:18.353Z,9.50
2023-01-03T01:50:28.509Z,9.70
2023-01-03T01:58:40.828Z,9.50
2023-01-03T02:06:47.220Z,9.10
2023-01-03T02:15:05.749Z,8.80
2023-01-03T02:23:52.454Z,8.60
2023-01-03T02:32:05.421Z,8.60
2023-01-03T02:40:17.086Z,8.50
2023-01-03T02:48:36.402Z,8.80
2023-01-03T02:56:45.676Z,8.80
2023-01-03T03:04:58.608Z,8.80
2023-01-03T03:13:16.850Z,9.00
2023-01-03T03:21:38.237Z,9.00
2023-01-03T03:29:44.036Z,8.80
2023-01-03T03:37:55.117Z,8.80
2023-01-03T03:46:08.062Z,8.80
2023-01-03T03:54:21.447Z,8.90
2023-01-03T04:02:29.111Z,8.80
2023-01-03T04:10:38.173Z,8.70
2023-01-03T04:18:43.801Z,8.50
2023-01-03T04:26:52.057Z,8.30
2023-01-03T04:34:57.515Z,8.10
2023-01-03T04:43:18.679Z,7.60
2023-01-03T04:51:24.162Z,7.50
2023-01-03T04:59:32.266Z,7.60
2023-01-03T05:07:37.854Z,7.50
2023-01-03T05:15:45.953Z,7.60
2023-01-03T05:24:03.692Z,7.20
2023-01-03T05:32:11.878Z,6.40
2023-01-03T05:40:17.500Z,6.50
2023-01-03T05:48:25.619Z,7.00
2023-01-03T05:56:31.188Z,7.20
2023-01-03T06:04:40.747Z,7.50
2023-01-03T06:12:46.727Z,7.40
2023-01-03T06:20:56.030Z,7.60
2023-01-03T06:29:04.595Z,7.90
2023-01-03T06:37:12.711Z,7.80
2023-01-03T06:45:36.453Z,7.90
2023-01-03T06:53:45.312Z,8.00
2023-01-03T07:01:52.139Z,7.40
2023-01-03T07:10:00.360Z,7.70
2023-01-03T07:18:06.103Z,8.10
2023-01-03T07:26:14.176Z,8.30
2023-01-03T07:34:21.056Z,8.40
2023-01-03T07:42:42.382Z,8.30
2023-01-03T07:50:47.843Z,9.10
2023-01-03T07:58:58.127Z,9.70
2023-01-03T08:07:04.220Z,10.40
2023-01-03T08:15:13.291Z,12.90
2023-01-03T08:23:18.947Z,16.50
2023-01-03T08:31:31.782Z,17.60
2023-01-03T08:39:42.143Z,19.20
2023-01-03T08:47:51.435Z,22.20
2023-01-03T08:55:56.877Z,24.30
2023-01-03T09:04:10.463Z,25.30
2023-01-03T09:12:17.263Z,26.80
2023-01-03T09:20:26.758Z,27.30
2023-01-03T09:28:33.355Z,28.40
2023-01-03T09:36:41.395Z,29.30
2023-01-03T09:44:46.919Z,28.50
2023-01-03T09:53:08.388Z,27.10
2023-01-03T10:01:42.612Z,26.50
2023-01-03T10:09:59.955Z,27.60
2023-01-03T10:18:18.599Z,28.90
2023-01-03T10:26:32.740Z,25.40
2023-01-03T10:34:40.847Z,20.70
2023-01-03T10:42:51.539Z,16.40
2023-01-03T10:50:57.894Z,16.00
2023-01-03T10:59:24.895Z,15.70
2023-01-03T11:07:30.212Z,15.70
2023-01-03T11:15:41.380Z,15.60
2023-01-03T11:24:14.951Z,15.60
2023-01-03T11:32:32.851Z,15.70
2023-01-03T11:40:49.314Z,16.10
2023-01-03T11:49:21.999Z,16.10
2023-01-03T11:57:36.410Z,16.00
2023-01-03T12:05:54.663Z,16.30
2023-01-03T12:14:06.964Z,16.70
2023-01-03T12:22:22.787Z,16.80
2023-01-03T12:30:41.935Z,16.80
2023-01-03T12:39:03.179Z,16.80
2023-01-03T12:47:14.011Z,16.90
2023-01-03T12:55:29.325Z,16.90
2023-01-03T13:03:41.653Z,16.90
2023-01-03T13:11:54.363Z,17.00
2023-01-03T13:20:01.418Z,16.90
2023-01-03T13:28:37.506Z,16.90
2023-01-03T13:37:15.344Z,16.70
2023-01-03T13:45:50.645Z,16.70
2023-01-03T13:54:04.864Z,16.60
2023-01-03T14:02:49.088Z,16.60
2023-01-03T14:11:14.518Z,16.50
2023-01-03T14:19:25.809Z,16.10
2023-01-03T14:27:40.947Z,16.10
2023-01-03T14:35:47.977Z,16.10
2023-01-03T14:44:02.339Z,15.90
2023-01-03T14:52:12.980Z,15.90
2023-01-03T15:00:32.109Z,15.70
2023-01-03T15:08:47.607Z,15.50
2023-01-03T15:17:05.849Z,15.30
2023-01-03T15:25:22.059Z,15.20
2023-01-03T15:33:36.144Z,15.10
2023-01-03T15:42:19.673Z,15.00
2023-01-03T15:50:25.737Z,15.00
2023-01-03T15:58:33.131Z,14.90
2023-01-03T16:06:41.311Z,14.80
2023-01-03T16:14:49.113Z,14.80
2023-01-03T16:23:01.454Z,14.70
2023-01-03T16:31:16.144Z,14.40
2023-01-03T16:39:27.166Z,14.50
2023-01-03T16:47:36.433Z,14.60
2023-01-03T16:55:44.690Z,14.70
2023-01-03T17:03:51.259Z,14.60
2023-01-03T17:11:59.513Z,14.50
2023-01-03T17:20:06.416Z,14.40
2023-01-03T17:28:14.994Z,14.30
2023-01-03T17:36:26.080Z,14.40
2023-01-03T17:44:35.333Z,14.50
2023-01-03T17:52:41.833Z,14.70
2023-01-03T18:00:50.922Z,14.80
2023-01-03T18:08:57.408Z,14.80
2023-01-03T18:17:05.646Z,14.60
2023-01-03T18:25:22.351Z,14.50
2023-01-03T18:33:31.535Z,14.50
2023-01-03T18:41:37.915Z,14.50
2023-01-03T18:49:46.868Z,14.40
2023-01-03T18:57:53.999Z,14.20
2023-01-03T19:06:03.352Z,14.10
2023-01-03T19:14:10.014Z,14.10
2023-01-03T19:22:28.589Z,14.30
2023-01-03T19:30:39.115Z,14.30
2023-01-03T19:38:47.283Z,14.20
2023-01-03T19:46:52.727Z,14.20
2023-01-03T19:55:04.043Z,14.30
2023-01-03T20:03:32.873Z,14.20
2023-01-03T20:11:41.244Z,14.10
2023-01-03T20:19:48.997Z,12.90
2023-01-03T20:27:58.885Z,13.60
2023-01-03T20:36:17.892Z,13.90
2023-01-03T20:44:28.047Z,14.00
2023-01-03T20:52:34.144Z,14.10
2023-01-03T21:00:43.019Z,14.30
2023-01-03T21:08:58.377Z,13.70
2023-01-03T21:17:12.036Z,14.10
2023-01-03T21:25:20.735Z,14.20
2023-01-03T21:33:28.839Z,14.10
2023-01-03T21:41:57.660Z,14.20
2023-01-03T21:50:05.648Z,14.20
2023-01-03T21:58:11.588Z,13.80
2023-01-03T22:06:20.776Z,13.60
2023-01-03T22:14:26.639Z,13.30
2023-01-03T22:22:34.771Z,13.50
2023-01-03T22:30:41.723Z,13.70
2023-01-03T22:38:50.068Z,13.90
2023-01-03T22:46:55.541Z,14.00
2023-01-03T22:55:03.527Z,14.10
2023-01-03T23:03:08.912Z,14.10
2023-01-03T23:11:34.196Z,14.10
2023-01-03T23:19:40.297Z,14.10
2023-01-03T23:27:49.939Z,14.20
2023-01-03T23:35:55.442Z,14.20
2023-01-03T23:44:03.402Z,13.60
2023-01-03T23:52:08.827Z,13.70
